Addison, Texas
Current Conditions -  °F | °C
As of 9:47 AM on Tuesday 21 Oct 2014 (Local Time) from KADS Reporting Station
Clear Clear  
Wind Chill: 70°   Ceiling: Unl
Heat Index: 70°   Visibility: 11mi
Dew Point: 59°   Wind: 5mph
Humidity: 68%   Direction: 210°SSW
Pressure: 30.13"   Gusts: NA
Location:  32.95°N, 96.82°W
Report Text: KADS 211447Z 21004KT 11SM SKC 21/15 A3013
Loading
Personal Weather Stations






























Interactive Weather Map
Tropical Storm Tracking
New forecast layout! Learn more

10-Day Weather Forecast

Advertisements
Track Severe Weather on mobile